createdAt,value
2023-09-15T00:00:55.143Z,47.93
2023-09-15T00:03:23.345Z,48.70
2023-09-15T00:05:51.243Z,48.40
2023-09-15T00:08:19.278Z,48.30
2023-09-15T00:10:49.024Z,48.03
2023-09-15T00:13:18.785Z,47.73
2023-09-15T00:15:51.127Z,47.97
2023-09-15T00:18:19.491Z,48.07
2023-09-15T00:20:47.559Z,47.87
2023-09-15T00:23:15.544Z,48.10
2023-09-15T00:25:46.558Z,48.13
2023-09-15T00:28:14.590Z,48.27
2023-09-15T00:30:43.943Z,47.97
2023-09-15T00:33:12.088Z,48.03
2023-09-15T00:35:39.974Z,48.07
2023-09-15T00:38:08.145Z,47.90
2023-09-15T00:40:36.030Z,47.97
2023-09-15T00:43:04.235Z,48.00
2023-09-15T00:45:32.343Z,47.73
2023-09-15T00:48:01.811Z,48.00
2023-09-15T00:50:33.443Z,47.93
2023-09-15T00:53:05.838Z,48.13
2023-09-15T00:55:35.115Z,48.03
2023-09-15T00:58:04.875Z,47.83
2023-09-15T01:00:33.501Z,48.10
2023-09-15T01:03:03.448Z,47.90
2023-09-15T01:05:31.697Z,47.67
2023-09-15T01:07:59.597Z,48.17
2023-09-15T01:10:28.727Z,47.83
2023-09-15T01:12:57.268Z,47.70
2023-09-15T01:15:32.017Z,47.73
2023-09-15T01:18:08.294Z,47.70
2023-09-15T01:21:05.188Z,47.50
2023-09-15T01:24:04.858Z,47.73
2023-09-15T01:27:01.046Z,47.57
2023-09-15T01:29:47.102Z,47.73
2023-09-15T01:32:19.860Z,47.47
2023-09-15T01:34:50.014Z,47.47
2023-09-15T01:37:18.865Z,47.13
2023-09-15T01:39:47.109Z,47.30
2023-09-15T01:42:15.505Z,47.27
2023-09-15T01:44:44.806Z,47.40
2023-09-15T01:47:21.740Z,47.53
2023-09-15T01:49:51.064Z,47.67
2023-09-15T01:52:19.907Z,47.63
2023-09-15T01:54:49.384Z,47.73
2023-09-15T01:57:17.318Z,47.87
2023-09-15T01:59:46.629Z,47.70
2023-09-15T02:02:14.613Z,47.77
2023-09-15T02:04:42.781Z,47.47
2023-09-15T02:07:10.961Z,47.70
2023-09-15T02:09:39.236Z,47.67
2023-09-15T02:12:07.610Z,47.53
2023-09-15T02:14:36.848Z,47.67
2023-09-15T02:17:06.866Z,47.63
2023-09-15T02:19:35.316Z,47.80
2023-09-15T02:22:03.303Z,47.87
2023-09-15T02:24:32.786Z,47.67
2023-09-15T02:27:01.293Z,47.67
2023-09-15T02:29:29.228Z,47.73
2023-09-15T02:31:57.185Z,47.50
2023-09-15T02:34:26.620Z,47.60
2023-09-15T02:36:54.598Z,47.63
2023-09-15T02:39:22.784Z,47.63
2023-09-15T02:41:51.773Z,47.70
2023-09-15T02:44:20.431Z,47.57
2023-09-15T02:46:49.303Z,47.50
2023-09-15T02:49:17.288Z,47.90
2023-09-15T02:51:46.974Z,47.63
2023-09-15T02:54:14.945Z,47.67
2023-09-15T02:56:43.449Z,47.67
2023-09-15T02:59:11.764Z,47.43
2023-09-15T03:01:39.780Z,47.30
2023-09-15T03:04:08.448Z,47.47
2023-09-15T03:06:36.424Z,47.63
2023-09-15T03:09:07.146Z,47.47
2023-09-15T03:11:35.624Z,47.27
2023-09-15T03:14:07.105Z,47.70
2023-09-15T03:16:35.225Z,47.57
2023-09-15T03:19:04.438Z,47.43
2023-09-15T03:21:32.386Z,47.43
2023-09-15T03:24:00.378Z,47.50
2023-09-15T03:26:29.697Z,47.33
2023-09-15T03:28:58.473Z,47.47
2023-09-15T03:31:26.852Z,47.50
2023-09-15T03:33:55.205Z,47.60
2023-09-15T03:36:23.568Z,47.40
2023-09-15T03:38:51.547Z,47.43
2023-09-15T03:41:19.497Z,47.80
2023-09-15T03:43:48.764Z,47.97
2023-09-15T03:46:16.834Z,48.27
2023-09-15T03:48:44.927Z,48.87
2023-09-15T03:51:13.132Z,49.00
2023-09-15T03:53:40.990Z,48.77
2023-09-15T03:56:08.996Z,48.83
2023-09-15T03:58:37.972Z,49.07
2023-09-15T04:01:10.424Z,49.43
2023-09-15T04:03:38.688Z,49.43
2023-09-15T04:06:07.680Z,49.63
2023-09-15T04:08:35.579Z,49.80
2023-09-15T04:11:03.683Z,49.77
2023-09-15T04:13:31.896Z,49.70
2023-09-15T04:16:01.444Z,49.67
2023-09-15T04:18:32.994Z,49.77
2023-09-15T04:21:01.387Z,49.53
2023-09-15T04:23:29.353Z,49.40
2023-09-15T04:25:57.277Z,49.57
2023-09-15T04:28:25.807Z,49.57
2023-09-15T04:30:54.413Z,49.43
2023-09-15T04:33:22.438Z,50.07
2023-09-15T04:35:51.738Z,50.07
2023-09-15T04:38:20.193Z,49.50
2023-09-15T04:40:49.194Z,49.80
2023-09-15T04:43:18.352Z,49.40
2023-09-15T04:45:46.920Z,49.90
2023-09-15T04:48:15.442Z,49.87
2023-09-15T04:50:43.958Z,50.17
2023-09-15T04:53:13.512Z,50.13
2023-09-15T04:55:43.450Z,50.17
2023-09-15T04:58:13.563Z,49.80
2023-09-15T05:00:43.062Z,49.30
2023-09-15T05:03:13.111Z,49.57
2023-09-15T05:05:41.418Z,49.27
2023-09-15T05:08:09.319Z,49.63
2023-09-15T05:10:38.625Z,49.97
2023-09-15T05:13:07.195Z,50.30
2023-09-15T05:15:36.512Z,50.23
2023-09-15T05:18:05.461Z,50.93
2023-09-15T05:20:34.811Z,50.17
2023-09-15T05:23:05.256Z,50.03
2023-09-15T05:25:33.991Z,50.20
2023-09-15T05:28:03.645Z,50.10
2023-09-15T05:30:33.400Z,50.10
2023-09-15T05:33:01.612Z,50.40
2023-09-15T05:35:29.920Z,50.40
2023-09-15T05:37:58.095Z,50.57
2023-09-15T05:40:26.123Z,49.93
2023-09-15T05:42:55.660Z,50.37
2023-09-15T05:45:25.304Z,49.97
2023-09-15T05:47:53.393Z,49.60
2023-09-15T05:50:21.267Z,49.83
2023-09-15T05:52:49.179Z,49.67
2023-09-15T05:55:17.420Z,49.57
2023-09-15T05:57:45.448Z,49.67
2023-09-15T06:00:13.979Z,50.17
2023-09-15T06:02:44.309Z,50.17
2023-09-15T06:05:12.413Z,50.07
2023-09-15T06:07:40.518Z,49.23
2023-09-15T06:10:09.450Z,49.03
2023-09-15T06:12:37.410Z,48.50
2023-09-15T06:15:05.867Z,48.50
2023-09-15T06:17:35.109Z,48.03
2023-09-15T06:20:06.134Z,47.80
2023-09-15T06:22:35.441Z,47.40
2023-09-15T06:25:03.841Z,47.53
2023-09-15T06:27:33.851Z,47.33
2023-09-15T06:30:02.139Z,47.47
2023-09-15T06:32:30.110Z,47.00
2023-09-15T06:34:58.406Z,47.10
2023-09-15T06:37:27.746Z,47.23
2023-09-15T06:39:55.694Z,47.40
2023-09-15T06:42:23.643Z,47.50
2023-09-15T06:44:51.606Z,47.40
2023-09-15T06:47:19.526Z,47.40
2023-09-15T06:49:49.858Z,47.90
2023-09-15T06:52:17.945Z,47.30
2023-09-15T06:54:47.323Z,47.60
2023-09-15T06:57:15.219Z,47.80
2023-09-15T06:59:43.164Z,47.67
2023-09-15T07:02:13.022Z,47.67
2023-09-15T07:04:47.779Z,47.90
2023-09-15T07:07:15.903Z,47.63
2023-09-15T07:09:43.809Z,47.93
2023-09-15T07:12:13.071Z,48.10
2023-09-15T07:14:40.984Z,48.27
2023-09-15T07:17:08.951Z,48.20
2023-09-15T07:19:36.932Z,48.20
2023-09-15T07:22:05.324Z,48.37
2023-09-15T07:24:33.232Z,48.40
2023-09-15T07:27:02.225Z,48.33
2023-09-15T07:29:31.697Z,48.83
2023-09-15T07:32:00.899Z,49.77
2023-09-15T07:34:28.917Z,49.83
2023-09-15T07:36:57.037Z,50.70
2023-09-15T07:39:25.063Z,51.67
2023-09-15T07:41:52.962Z,52.03
2023-09-15T07:44:20.837Z,52.80
2023-09-15T07:46:50.154Z,52.60
2023-09-15T07:49:19.510Z,53.37
2023-09-15T07:51:50.022Z,53.30
2023-09-15T07:54:17.958Z,54.37
2023-09-15T07:56:45.894Z,53.67
2023-09-15T07:59:14.971Z,54.13
2023-09-15T08:01:42.932Z,54.43
2023-09-15T08:04:12.283Z,54.60
2023-09-15T08:06:40.280Z,54.87
2023-09-15T08:09:08.173Z,54.57
2023-09-15T08:11:38.655Z,55.30
2023-09-15T08:14:06.884Z,54.87
2023-09-15T08:16:34.949Z,55.10
2023-09-15T08:19:02.988Z,55.17
2023-09-15T08:21:32.407Z,56.00
2023-09-15T08:24:00.304Z,55.00
2023-09-15T08:26:39.032Z,55.20
2023-09-15T08:29:13.507Z,55.07
2023-09-15T08:31:41.807Z,55.00
2023-09-15T08:34:10.005Z,55.20
2023-09-15T08:36:39.336Z,56.17
2023-09-15T08:39:07.300Z,55.17
2023-09-15T08:41:41.645Z,56.33
2023-09-15T08:44:10.849Z,55.87
2023-09-15T08:46:41.700Z,55.73
2023-09-15T08:49:11.558Z,55.60
2023-09-15T08:51:41.173Z,56.33
2023-09-15T08:54:09.671Z,56.57
2023-09-15T08:56:37.767Z,56.00
2023-09-15T08:59:06.833Z,56.70
2023-09-15T09:01:35.782Z,56.20
2023-09-15T09:04:04.301Z,55.83
2023-09-15T09:06:35.673Z,55.80
2023-09-15T09:09:05.623Z,56.57
2023-09-15T09:11:34.163Z,56.20
2023-09-15T09:14:02.162Z,56.63
2023-09-15T09:16:31.405Z,56.50
2023-09-15T09:19:01.685Z,56.40
2023-09-15T09:21:30.924Z,56.10
2023-09-15T09:23:59.906Z,55.97
2023-09-15T09:26:29.462Z,56.53
2023-09-15T09:28:58.655Z,56.37
2023-09-15T09:31:27.499Z,55.67
2023-09-15T09:33:56.280Z,55.97
2023-09-15T09:36:24.325Z,56.67
2023-09-15T09:38:53.778Z,56.33
2023-09-15T09:41:23.927Z,56.83
2023-09-15T09:43:53.460Z,56.43
2023-09-15T09:46:22.815Z,56.13
2023-09-15T09:48:52.572Z,56.67
2023-09-15T09:51:21.896Z,56.40
2023-09-15T09:53:56.315Z,56.77
2023-09-15T09:56:24.537Z,56.57
2023-09-15T09:58:53.898Z,56.63
2023-09-15T10:01:21.892Z,56.70
2023-09-15T10:03:50.816Z,56.87
2023-09-15T10:06:19.579Z,56.90
2023-09-15T10:08:48.900Z,56.67
2023-09-15T10:11:18.062Z,56.30
2023-09-15T10:13:46.991Z,55.97
2023-09-15T10:16:16.827Z,56.50
2023-09-15T10:18:46.276Z,55.50
2023-09-15T10:21:15.823Z,56.87
2023-09-15T10:23:43.832Z,56.17
2023-09-15T10:26:13.341Z,56.57
2023-09-15T10:28:46.829Z,56.80
2023-09-15T10:31:16.139Z,56.47
2023-09-15T10:33:44.451Z,56.80
2023-09-15T10:36:16.168Z,56.57
2023-09-15T10:38:46.744Z,57.03
2023-09-15T10:41:26.972Z,56.93
2023-09-15T10:43:55.054Z,56.97
2023-09-15T10:46:36.571Z,56.67
2023-09-15T10:49:16.036Z,55.60
2023-09-15T10:51:57.292Z,56.10
2023-09-15T10:54:32.204Z,56.37
2023-09-15T10:57:01.715Z,57.13
2023-09-15T10:59:29.840Z,57.63
2023-09-15T11:02:00.218Z,57.13
2023-09-15T11:04:30.881Z,57.57
2023-09-15T11:06:59.666Z,57.00
2023-09-15T11:09:27.617Z,57.47
2023-09-15T11:11:55.580Z,57.80
2023-09-15T11:14:25.035Z,57.80
2023-09-15T11:16:55.176Z,57.70
2023-09-15T11:19:26.941Z,57.30
2023-09-15T11:21:54.833Z,57.63
2023-09-15T11:24:23.858Z,57.23
2023-09-15T11:26:53.343Z,57.40
2023-09-15T11:29:26.583Z,57.87
2023-09-15T11:31:55.760Z,57.97
2023-09-15T11:34:25.403Z,57.47
2023-09-15T11:36:59.249Z,57.87
2023-09-15T11:39:27.489Z,57.93
2023-09-15T11:41:55.488Z,57.17
2023-09-15T11:44:26.202Z,57.43
2023-09-15T11:46:57.033Z,56.83
2023-09-15T11:49:27.760Z,57.47
2023-09-15T11:51:57.246Z,57.03
2023-09-15T11:54:25.331Z,57.20
2023-09-15T11:56:54.059Z,57.33
2023-09-15T11:59:22.603Z,57.40
2023-09-15T12:01:55.842Z,56.90
2023-09-15T12:04:25.097Z,57.03
2023-09-15T12:06:55.636Z,57.17
2023-09-15T12:09:23.900Z,56.77
2023-09-15T12:11:53.344Z,57.63
2023-09-15T12:14:21.478Z,57.57
2023-09-15T12:16:49.603Z,57.20
2023-09-15T12:19:18.126Z,57.10
2023-09-15T12:21:54.640Z,57.37
2023-09-15T12:24:24.981Z,57.70
2023-09-15T12:26:53.506Z,57.90
2023-09-15T12:29:23.666Z,57.87
2023-09-15T12:31:52.724Z,57.90
2023-09-15T12:34:22.098Z,57.53
2023-09-15T12:36:53.528Z,57.50
2023-09-15T12:39:23.126Z,57.07
2023-09-15T12:42:13.514Z,57.10
2023-09-15T12:44:43.434Z,56.37
2023-09-15T12:47:12.040Z,55.90
2023-09-15T12:49:40.368Z,56.93
2023-09-15T12:52:08.612Z,56.27
2023-09-15T12:54:38.038Z,56.30
2023-09-15T12:57:06.449Z,55.97
2023-09-15T12:59:34.406Z,56.80
2023-09-15T13:02:02.612Z,56.07
2023-09-15T13:04:32.056Z,56.00
2023-09-15T13:07:01.274Z,56.03
2023-09-15T13:09:32.003Z,56.67
2023-09-15T13:12:02.139Z,56.37
2023-09-15T13:14:31.202Z,55.83
2023-09-15T13:17:00.119Z,55.43
2023-09-15T13:19:28.209Z,55.63
2023-09-15T13:21:56.143Z,55.97
2023-09-15T13:24:24.122Z,55.87
2023-09-15T13:26:53.284Z,55.47
2023-09-15T13:29:22.579Z,1.13
2023-09-15T13:31:50.677Z,55.77
2023-09-15T13:34:18.703Z,55.97
2023-09-15T13:36:46.653Z,55.77
2023-09-15T13:39:14.602Z,55.33
2023-09-15T13:41:42.584Z,56.67
2023-09-15T13:44:10.887Z,56.30
2023-09-15T13:46:40.588Z,56.53
2023-09-15T13:49:08.614Z,56.33
2023-09-15T13:51:42.563Z,56.43
2023-09-15T13:54:11.620Z,56.97
2023-09-15T13:56:39.796Z,58.63
2023-09-15T13:59:07.746Z,56.63
2023-09-15T14:01:38.218Z,56.00
2023-09-15T14:04:08.609Z,55.60
2023-09-15T14:06:36.636Z,56.30
2023-09-15T14:09:04.961Z,55.43
2023-09-15T14:11:32.847Z,56.73
2023-09-15T14:14:00.799Z,56.13
2023-09-15T14:16:28.789Z,55.87
2023-09-15T14:18:56.713Z,56.17
2023-09-15T14:21:26.097Z,56.23
2023-09-15T14:23:54.015Z,56.13
2023-09-15T14:26:22.257Z,55.90
2023-09-15T14:28:50.544Z,56.83
2023-09-15T14:31:18.712Z,56.40
2023-09-15T14:33:46.732Z,56.70
2023-09-15T14:36:14.680Z,56.07
2023-09-15T14:38:43.940Z,56.90
2023-09-15T14:41:11.873Z,55.90
2023-09-15T14:43:41.620Z,56.50
2023-09-15T14:46:09.712Z,56.63
2023-09-15T14:48:37.792Z,56.00
2023-09-15T14:51:05.782Z,55.93
2023-09-15T14:53:37.774Z,56.13
2023-09-15T14:56:07.005Z,56.27
2023-09-15T14:58:35.688Z,55.53
2023-09-15T15:01:03.614Z,56.87
2023-09-15T15:03:31.653Z,56.40
2023-09-15T15:05:59.701Z,56.30
2023-09-15T15:08:27.596Z,56.67
2023-09-15T15:10:55.620Z,58.83
2023-09-15T15:13:26.147Z,56.20
2023-09-15T15:15:54.222Z,57.17
2023-09-15T15:18:22.340Z,56.77
2023-09-15T15:20:51.893Z,57.00
2023-09-15T15:23:19.761Z,56.90
2023-09-15T15:25:47.888Z,56.50
2023-09-15T15:28:16.963Z,56.33
2023-09-15T15:30:46.557Z,56.60
2023-09-15T15:33:14.464Z,55.47
2023-09-15T15:35:42.357Z,56.70
2023-09-15T15:38:10.235Z,56.83
2023-09-15T15:40:38.167Z,56.50
2023-09-15T15:43:06.163Z,56.50
2023-09-15T15:45:34.135Z,57.40
2023-09-15T15:48:05.259Z,57.00
2023-09-15T15:50:33.325Z,57.33
2023-09-15T15:53:01.207Z,23.90
2023-09-15T15:55:29.525Z,55.70
2023-09-15T15:57:57.440Z,56.20
2023-09-15T16:00:25.471Z,56.50
2023-09-15T16:02:53.395Z,55.60
2023-09-15T16:05:22.644Z,56.20
2023-09-15T16:07:50.521Z,55.97
2023-09-15T16:10:18.604Z,56.67
2023-09-15T16:12:46.576Z,56.57
2023-09-15T16:15:14.577Z,55.87
2023-09-15T16:17:42.645Z,58.27
2023-09-15T16:20:11.273Z,55.53
2023-09-15T16:22:40.548Z,55.70
2023-09-15T16:25:10.381Z,55.10
2023-09-15T16:27:39.024Z,55.30
2023-09-15T16:30:08.499Z,54.07
2023-09-15T16:32:37.306Z,55.20
2023-09-15T16:35:06.040Z,55.80
2023-09-15T16:37:34.988Z,55.93
2023-09-15T16:40:04.369Z,55.70
2023-09-15T16:42:32.325Z,55.70
2023-09-15T16:45:03.448Z,54.83
2023-09-15T16:47:31.384Z,55.47
2023-09-15T16:50:00.523Z,54.40
2023-09-15T16:52:28.455Z,55.07
2023-09-15T16:54:56.407Z,55.70
2023-09-15T16:57:25.802Z,55.60
2023-09-15T16:59:56.347Z,55.67
2023-09-15T17:02:24.254Z,55.03
2023-09-15T17:04:52.766Z,55.27
2023-09-15T17:07:20.664Z,55.93
2023-09-15T17:09:49.156Z,54.77
2023-09-15T17:12:17.283Z,55.17
2023-09-15T17:14:47.928Z,55.13
2023-09-15T17:17:15.967Z,54.83
2023-09-15T17:19:43.973Z,54.37
2023-09-15T17:22:12.704Z,54.20
2023-09-15T17:24:41.812Z,54.23
2023-09-15T17:27:10.041Z,53.50
2023-09-15T17:29:37.969Z,54.13
2023-09-15T17:32:07.853Z,54.00
2023-09-15T17:34:35.791Z,54.30
2023-09-15T17:37:03.986Z,53.90
2023-09-15T17:39:32.104Z,54.17
2023-09-15T17:42:00.059Z,54.23
2023-09-15T17:44:28.113Z,53.97
2023-09-15T17:46:56.059Z,53.27
2023-09-15T17:49:25.315Z,53.40
2023-09-15T17:51:53.247Z,54.07
2023-09-15T17:54:25.526Z,53.97
2023-09-15T17:56:54.158Z,53.90
2023-09-15T17:59:25.029Z,53.40
2023-09-15T18:01:54.252Z,53.40
2023-09-15T18:04:22.173Z,53.20
2023-09-15T18:06:51.524Z,53.77
2023-09-15T18:09:19.887Z,53.83
2023-09-15T18:11:48.038Z,53.43
2023-09-15T18:14:16.365Z,54.03
2023-09-15T18:16:44.266Z,53.60
2023-09-15T18:19:15.187Z,52.83
2023-09-15T18:21:43.100Z,53.53
2023-09-15T18:24:12.657Z,53.57
2023-09-15T18:26:41.195Z,52.53
2023-09-15T18:29:10.221Z,53.37
2023-09-15T18:31:38.079Z,53.33
2023-09-15T18:34:06.058Z,52.90
2023-09-15T18:36:34.028Z,53.40
2023-09-15T18:39:01.933Z,52.47
2023-09-15T18:41:31.365Z,53.00
2023-09-15T18:43:59.394Z,52.90
2023-09-15T18:46:27.904Z,52.20
2023-09-15T18:48:57.545Z,52.90
2023-09-15T18:51:25.707Z,52.77
2023-09-15T18:53:53.684Z,52.70
2023-09-15T18:56:21.598Z,52.73
2023-09-15T18:58:51.022Z,52.63
2023-09-15T19:01:21.455Z,51.77
2023-09-15T19:03:49.500Z,52.87
2023-09-15T19:06:18.064Z,52.53
2023-09-15T19:08:47.260Z,52.37
2023-09-15T19:11:15.573Z,52.77
2023-09-15T19:13:43.654Z,52.33
2023-09-15T19:16:22.813Z,51.67
2023-09-15T19:18:52.716Z,52.43
2023-09-15T19:21:21.716Z,52.03
2023-09-15T19:23:49.873Z,52.17
2023-09-15T19:26:17.788Z,52.20
2023-09-15T19:28:50.696Z,52.07
2023-09-15T19:31:20.988Z,52.23
2023-09-15T19:33:50.190Z,51.67
2023-09-15T19:36:18.278Z,52.10
2023-09-15T19:38:46.437Z,51.60
2023-09-15T19:41:16.295Z,52.03
2023-09-15T19:43:44.181Z,52.37
2023-09-15T19:46:13.746Z,51.77
2023-09-15T19:48:43.177Z,51.83
2023-09-15T19:51:11.096Z,52.00
2023-09-15T19:53:39.003Z,52.00
2023-09-15T19:56:06.942Z,52.03
2023-09-15T19:58:37.901Z,52.10
2023-09-15T20:01:05.996Z,52.00
2023-09-15T20:03:35.172Z,51.53
2023-09-15T20:06:06.017Z,51.93
2023-09-15T20:08:33.941Z,51.47
2023-09-15T20:11:02.071Z,51.97
2023-09-15T20:13:30.023Z,52.07
2023-09-15T20:15:57.936Z,51.83
2023-09-15T20:18:26.022Z,51.90
2023-09-15T20:20:54.743Z,51.80
2023-09-15T20:23:24.072Z,51.00
2023-09-15T20:25:52.057Z,51.60
2023-09-15T20:28:20.808Z,52.00
2023-09-15T20:30:48.789Z,51.57
2023-09-15T20:33:16.720Z,51.50
2023-09-15T20:35:44.976Z,51.53
2023-09-15T20:38:12.928Z,51.73
2023-09-15T20:40:44.365Z,51.73
2023-09-15T20:43:12.692Z,51.67
2023-09-15T20:45:41.510Z,51.67
2023-09-15T20:48:10.216Z,51.53
2023-09-15T20:50:38.165Z,51.77
2023-09-15T20:53:06.216Z,51.53
2023-09-15T20:55:34.491Z,51.47
2023-09-15T20:58:06.591Z,51.60
2023-09-15T21:00:35.103Z,52.70
2023-09-15T21:03:03.826Z,52.30
2023-09-15T21:05:31.788Z,52.87
2023-09-15T21:07:59.698Z,52.60
2023-09-15T21:10:27.565Z,52.37
2023-09-15T21:12:55.518Z,52.30
2023-09-15T21:15:24.820Z,52.50
2023-09-15T21:17:53.542Z,52.77
2023-09-15T21:20:21.651Z,52.07
2023-09-15T21:22:50.922Z,51.83
2023-09-15T21:25:18.824Z,51.50
2023-09-15T21:27:46.753Z,51.47
2023-09-15T21:30:14.706Z,51.83
2023-09-15T21:32:44.122Z,51.67
2023-09-15T21:35:13.286Z,51.33
2023-09-15T21:37:41.170Z,51.20
2023-09-15T21:40:10.336Z,51.63
2023-09-15T21:42:38.359Z,51.33
2023-09-15T21:45:10.094Z,51.53
2023-09-15T21:47:37.984Z,51.60
2023-09-15T21:50:07.956Z,51.47
2023-09-15T21:52:36.268Z,51.43
2023-09-15T21:55:05.023Z,52.07
2023-09-15T21:57:32.949Z,51.67
2023-09-15T22:00:00.875Z,51.23
2023-09-15T22:02:28.819Z,51.47
2023-09-15T22:04:57.404Z,51.30
2023-09-15T22:07:26.741Z,51.47
2023-09-15T22:09:54.792Z,51.30
2023-09-15T22:12:22.763Z,51.43
2023-09-15T22:14:50.674Z,51.00
2023-09-15T22:17:19.185Z,51.13
2023-09-15T22:19:49.118Z,51.23
2023-09-15T22:22:17.582Z,51.57
2023-09-15T22:24:46.888Z,51.40
2023-09-15T22:27:15.043Z,51.07
2023-09-15T22:29:45.301Z,51.23
2023-09-15T22:32:14.142Z,51.00
2023-09-15T22:34:42.159Z,50.67
2023-09-15T22:37:10.864Z,51.43
2023-09-15T22:39:39.086Z,51.07
2023-09-15T22:42:08.789Z,50.70
2023-09-15T22:44:37.544Z,51.03
2023-09-15T22:47:09.424Z,50.80
2023-09-15T22:49:39.847Z,51.17
2023-09-15T22:52:09.147Z,50.97
2023-09-15T22:54:42.690Z,51.07
2023-09-15T22:57:12.099Z,51.03
2023-09-15T22:59:39.984Z,50.80
2023-09-15T23:02:08.943Z,50.87
2023-09-15T23:04:36.842Z,51.07
2023-09-15T23:07:05.129Z,50.83
2023-09-15T23:09:33.055Z,51.00
2023-09-15T23:12:01.844Z,50.97
2023-09-15T23:14:31.108Z,50.77
2023-09-15T23:16:59.747Z,51.07
2023-09-15T23:19:27.891Z,51.07
2023-09-15T23:21:55.795Z,50.77
2023-09-15T23:24:25.400Z,51.17
2023-09-15T23:26:54.901Z,50.97
2023-09-15T23:29:22.831Z,50.97
2023-09-15T23:31:52.820Z,50.77
2023-09-15T23:34:20.936Z,50.73
2023-09-15T23:36:48.886Z,50.77
2023-09-15T23:39:16.801Z,50.83
2023-09-15T23:41:45.257Z,50.43
2023-09-15T23:44:13.404Z,50.53
2023-09-15T23:46:41.332Z,50.50
2023-09-15T23:49:10.666Z,50.90
2023-09-15T23:51:38.599Z,50.67
2023-09-15T23:54:06.766Z,51.30
2023-09-15T23:56:34.650Z,50.73
2023-09-15T23:59:02.529Z,51.30
